sensor_id;sensor_type;location;lat;lon;timestamp;P1;durP1;ratioP1;P2;durP2;ratioP2
58446;SDS011;44240;51.840;7.258;2023-12-20T00:01:55;16.55;;;7.53;;
58446;SDS011;44240;51.840;7.258;2023-12-20T00:04:22;15.35;;;6.97;;
58446;SDS011;44240;51.840;7.258;2023-12-20T00:06:49;13.25;;;5.65;;
58446;SDS011;44240;51.840;7.258;2023-12-20T00:09:16;13.13;;;5.68;;
58446;SDS011;44240;51.840;7.258;2023-12-20T00:11:43;11.00;;;5.20;;
58446;SDS011;44240;51.840;7.258;2023-12-20T00:14:09;11.45;;;5.78;;
58446;SDS011;44240;51.840;7.258;2023-12-20T00:16:36;15.07;;;5.95;;
58446;SDS011;44240;51.840;7.258;2023-12-20T00:19:03;12.05;;;6.10;;
58446;SDS011;44240;51.840;7.258;2023-12-20T00:21:30;13.45;;;5.97;;
58446;SDS011;44240;51.840;7.258;2023-12-20T00:23:56;12.60;;;6.05;;
58446;SDS011;44240;51.840;7.258;2023-12-20T00:26:23;11.93;;;6.45;;
58446;SDS011;44240;51.840;7.258;2023-12-20T00:28:50;13.98;;;7.03;;
58446;SDS011;44240;51.840;7.258;2023-12-20T00:31:17;12.32;;;5.93;;
58446;SDS011;44240;51.840;7.258;2023-12-20T00:33:43;11.05;;;6.20;;
58446;SDS011;44240;51.840;7.258;2023-12-20T00:36:12;11.52;;;6.32;;
58446;SDS011;44240;51.840;7.258;2023-12-20T00:38:39;11.38;;;5.28;;
58446;SDS011;44240;51.840;7.258;2023-12-20T00:41:06;14.52;;;5.47;;
58446;SDS011;44240;51.840;7.258;2023-12-20T00:43:32;12.77;;;6.38;;
58446;SDS011;44240;51.840;7.258;2023-12-20T00:45:59;11.18;;;6.85;;
58446;SDS011;44240;51.840;7.258;2023-12-20T00:48:26;12.18;;;5.70;;
58446;SDS011;44240;51.840;7.258;2023-12-20T00:50:53;15.32;;;6.25;;
58446;SDS011;44240;51.840;7.258;2023-12-20T00:53:20;11.63;;;6.30;;
58446;SDS011;44240;51.840;7.258;2023-12-20T00:55:47;13.13;;;6.57;;
58446;SDS011;44240;51.840;7.258;2023-12-20T00:58:13;10.38;;;6.45;;
58446;SDS011;44240;51.840;7.258;2023-12-20T01:00:41;13.52;;;5.85;;
58446;SDS011;44240;51.840;7.258;2023-12-20T01:03:10;9.63;;;4.85;;
58446;SDS011;44240;51.840;7.258;2023-12-20T01:05:37;9.38;;;5.15;;
58446;SDS011;44240;51.840;7.258;2023-12-20T01:08:04;12.30;;;5.30;;
58446;SDS011;44240;51.840;7.258;2023-12-20T01:10:31;8.80;;;5.28;;
58446;SDS011;44240;51.840;7.258;2023-12-20T01:12:58;10.30;;;5.13;;
58446;SDS011;44240;51.840;7.258;2023-12-20T01:15:24;13.40;;;5.35;;
58446;SDS011;44240;51.840;7.258;2023-12-20T01:17:51;12.05;;;4.38;;
58446;SDS011;44240;51.840;7.258;2023-12-20T01:20:18;9.73;;;4.93;;
58446;SDS011;44240;51.840;7.258;2023-12-20T01:22:46;11.57;;;4.13;;
58446;SDS011;44240;51.840;7.258;2023-12-20T01:25:13;7.78;;;3.80;;
58446;SDS011;44240;51.840;7.258;2023-12-20T01:27:40;8.82;;;4.07;;
58446;SDS011;44240;51.840;7.258;2023-12-20T01:30:07;7.95;;;4.07;;
58446;SDS011;44240;51.840;7.258;2023-12-20T01:32:34;5.82;;;3.47;;
58446;SDS011;44240;51.840;7.258;2023-12-20T01:35:01;8.02;;;3.50;;
58446;SDS011;44240;51.840;7.258;2023-12-20T01:37:29;7.85;;;2.88;;
58446;SDS011;44240;51.840;7.258;2023-12-20T01:39:56;10.48;;;3.33;;
58446;SDS011;44240;51.840;7.258;2023-12-20T01:42:23;12.43;;;4.53;;
58446;SDS011;44240;51.840;7.258;2023-12-20T01:44:49;8.93;;;3.22;;
58446;SDS011;44240;51.840;7.258;2023-12-20T01:47:16;12.23;;;3.80;;
58446;SDS011;44240;51.840;7.258;2023-12-20T01:49:43;7.32;;;3.33;;
58446;SDS011;44240;51.840;7.258;2023-12-20T01:52:10;11.27;;;3.60;;
58446;SDS011;44240;51.840;7.258;2023-12-20T01:54:38;7.80;;;3.28;;
58446;SDS011;44240;51.840;7.258;2023-12-20T01:57:08;8.73;;;3.90;;
58446;SDS011;44240;51.840;7.258;2023-12-20T01:59:35;8.85;;;2.55;;
58446;SDS011;44240;51.840;7.258;2023-12-20T02:02:05;7.28;;;2.50;;
58446;SDS011;44240;51.840;7.258;2023-12-20T02:04:33;11.63;;;2.85;;
58446;SDS011;44240;51.840;7.258;2023-12-20T02:07:00;6.70;;;2.40;;
58446;SDS011;44240;51.840;7.258;2023-12-20T02:09:28;6.07;;;2.78;;
58446;SDS011;44240;51.840;7.258;2023-12-20T02:11:55;9.23;;;2.42;;
58446;SDS011;44240;51.840;7.258;2023-12-20T02:14:22;7.53;;;3.25;;
58446;SDS011;44240;51.840;7.258;2023-12-20T02:16:49;9.45;;;2.72;;
58446;SDS011;44240;51.840;7.258;2023-12-20T02:19:16;8.93;;;2.50;;
58446;SDS011;44240;51.840;7.258;2023-12-20T02:21:46;7.13;;;2.92;;
58446;SDS011;44240;51.840;7.258;2023-12-20T02:24:13;9.35;;;3.10;;
58446;SDS011;44240;51.840;7.258;2023-12-20T02:26:39;10.20;;;3.38;;
58446;SDS011;44240;51.840;7.258;2023-12-20T02:29:11;10.40;;;3.58;;
58446;SDS011;44240;51.840;7.258;2023-12-20T02:31:38;8.60;;;3.10;;
58446;SDS011;44240;51.840;7.258;2023-12-20T02:34:05;9.65;;;3.35;;
58446;SDS011;44240;51.840;7.258;2023-12-20T02:36:32;5.10;;;2.75;;
58446;SDS011;44240;51.840;7.258;2023-12-20T02:38:59;10.35;;;3.00;;
58446;SDS011;44240;51.840;7.258;2023-12-20T02:41:26;13.32;;;3.97;;
58446;SDS011;44240;51.840;7.258;2023-12-20T02:43:53;12.38;;;3.00;;
58446;SDS011;44240;51.840;7.258;2023-12-20T02:46:19;10.00;;;2.92;;
58446;SDS011;44240;51.840;7.258;2023-12-20T02:48:46;9.30;;;3.75;;
58446;SDS011;44240;51.840;7.258;2023-12-20T02:51:13;13.07;;;3.10;;
58446;SDS011;44240;51.840;7.258;2023-12-20T02:53:40;8.02;;;3.00;;
58446;SDS011;44240;51.840;7.258;2023-12-20T02:56:07;8.40;;;2.42;;
58446;SDS011;44240;51.840;7.258;2023-12-20T02:58:34;9.90;;;2.45;;
58446;SDS011;44240;51.840;7.258;2023-12-20T03:01:00;5.68;;;2.65;;
58446;SDS011;44240;51.840;7.258;2023-12-20T03:03:27;10.73;;;2.72;;
58446;SDS011;44240;51.840;7.258;2023-12-20T03:05:55;8.23;;;3.13;;
58446;SDS011;44240;51.840;7.258;2023-12-20T03:08:22;8.10;;;2.95;;
58446;SDS011;44240;51.840;7.258;2023-12-20T03:10:48;8.82;;;2.58;;
58446;SDS011;44240;51.840;7.258;2023-12-20T03:13:16;7.35;;;2.72;;
58446;SDS011;44240;51.840;7.258;2023-12-20T03:15:43;9.75;;;3.05;;
58446;SDS011;44240;51.840;7.258;2023-12-20T03:18:09;11.77;;;2.92;;
58446;SDS011;44240;51.840;7.258;2023-12-20T03:20:36;9.15;;;2.47;;
58446;SDS011;44240;51.840;7.258;2023-12-20T03:23:03;11.18;;;2.67;;
58446;SDS011;44240;51.840;7.258;2023-12-20T03:25:30;8.13;;;2.30;;
58446;SDS011;44240;51.840;7.258;2023-12-20T03:27:57;8.50;;;2.63;;
58446;SDS011;44240;51.840;7.258;2023-12-20T03:30:24;7.45;;;2.60;;
58446;SDS011;44240;51.840;7.258;2023-12-20T03:32:50;17.77;;;3.30;;
58446;SDS011;44240;51.840;7.258;2023-12-20T03:35:17;9.65;;;2.78;;
58446;SDS011;44240;51.840;7.258;2023-12-20T03:37:44;10.43;;;3.85;;
58446;SDS011;44240;51.840;7.258;2023-12-20T03:40:11;9.07;;;2.70;;
58446;SDS011;44240;51.840;7.258;2023-12-20T03:42:38;9.40;;;3.00;;
58446;SDS011;44240;51.840;7.258;2023-12-20T03:45:05;10.32;;;3.20;;
58446;SDS011;44240;51.840;7.258;2023-12-20T03:47:32;12.07;;;3.40;;
58446;SDS011;44240;51.840;7.258;2023-12-20T03:49:59;9.45;;;3.13;;
58446;SDS011;44240;51.840;7.258;2023-12-20T03:52:26;8.23;;;3.42;;
58446;SDS011;44240;51.840;7.258;2023-12-20T03:54:53;11.38;;;3.85;;
58446;SDS011;44240;51.840;7.258;2023-12-20T03:57:19;6.72;;;2.38;;
58446;SDS011;44240;51.840;7.258;2023-12-20T03:59:46;8.25;;;3.22;;
58446;SDS011;44240;51.840;7.258;2023-12-20T04:02:13;8.40;;;3.65;;
58446;SDS011;44240;51.840;7.258;2023-12-20T04:04:40;10.02;;;4.38;;
58446;SDS011;44240;51.840;7.258;2023-12-20T04:07:07;13.95;;;4.30;;
58446;SDS011;44240;51.840;7.258;2023-12-20T04:09:34;8.65;;;3.67;;
58446;SDS011;44240;51.840;7.258;2023-12-20T04:12:00;14.80;;;4.43;;
58446;SDS011;44240;51.840;7.258;2023-12-20T04:14:27;17.33;;;4.22;;
58446;SDS011;44240;51.840;7.258;2023-12-20T04:16:54;15.32;;;4.05;;
58446;SDS011;44240;51.840;7.258;2023-12-20T04:19:21;14.27;;;6.22;;
58446;SDS011;44240;51.840;7.258;2023-12-20T04:21:48;9.27;;;3.80;;
58446;SDS011;44240;51.840;7.258;2023-12-20T04:24:15;13.43;;;5.57;;
58446;SDS011;44240;51.840;7.258;2023-12-20T04:26:41;11.90;;;4.50;;
58446;SDS011;44240;51.840;7.258;2023-12-20T04:29:08;10.07;;;4.68;;
58446;SDS011;44240;51.840;7.258;2023-12-20T04:31:35;12.00;;;5.15;;
58446;SDS011;44240;51.840;7.258;2023-12-20T04:34:01;15.57;;;4.90;;
58446;SDS011;44240;51.840;7.258;2023-12-20T04:36:28;14.30;;;5.57;;
58446;SDS011;44240;51.840;7.258;2023-12-20T04:38:56;11.38;;;4.03;;
58446;SDS011;44240;51.840;7.258;2023-12-20T04:41:23;11.82;;;5.28;;
58446;SDS011;44240;51.840;7.258;2023-12-20T04:43:49;10.07;;;5.20;;
58446;SDS011;44240;51.840;7.258;2023-12-20T04:46:16;11.75;;;4.45;;
58446;SDS011;44240;51.840;7.258;2023-12-20T04:48:43;12.27;;;4.95;;
58446;SDS011;44240;51.840;7.258;2023-12-20T04:51:10;13.75;;;5.75;;
58446;SDS011;44240;51.840;7.258;2023-12-20T04:53:37;14.68;;;4.70;;
58446;SDS011;44240;51.840;7.258;2023-12-20T04:56:04;13.10;;;5.00;;
58446;SDS011;44240;51.840;7.258;2023-12-20T04:58:31;10.50;;;4.45;;
58446;SDS011;44240;51.840;7.258;2023-12-20T05:00:57;7.45;;;3.47;;
58446;SDS011;44240;51.840;7.258;2023-12-20T05:03:24;10.20;;;3.50;;
58446;SDS011;44240;51.840;7.258;2023-12-20T05:05:51;9.65;;;4.00;;
58446;SDS011;44240;51.840;7.258;2023-12-20T05:08:18;8.88;;;3.55;;
58446;SDS011;44240;51.840;7.258;2023-12-20T05:10:46;13.57;;;4.45;;
58446;SDS011;44240;51.840;7.258;2023-12-20T05:13:12;14.02;;;4.93;;
58446;SDS011;44240;51.840;7.258;2023-12-20T05:15:39;12.15;;;4.00;;
58446;SDS011;44240;51.840;7.258;2023-12-20T05:18:06;10.85;;;4.38;;
58446;SDS011;44240;51.840;7.258;2023-12-20T05:20:33;11.50;;;3.70;;
58446;SDS011;44240;51.840;7.258;2023-12-20T05:23:00;11.57;;;3.95;;
58446;SDS011;44240;51.840;7.258;2023-12-20T05:25:26;11.68;;;3.72;;
58446;SDS011;44240;51.840;7.258;2023-12-20T05:27:53;11.30;;;5.10;;
58446;SDS011;44240;51.840;7.258;2023-12-20T05:30:20;11.35;;;4.45;;
58446;SDS011;44240;51.840;7.258;2023-12-20T05:32:47;8.95;;;3.83;;
58446;SDS011;44240;51.840;7.258;2023-12-20T05:35:14;8.73;;;3.65;;
58446;SDS011;44240;51.840;7.258;2023-12-20T05:37:41;10.68;;;3.88;;
58446;SDS011;44240;51.840;7.258;2023-12-20T05:40:09;9.60;;;3.40;;
58446;SDS011;44240;51.840;7.258;2023-12-20T05:42:37;11.13;;;3.38;;
58446;SDS011;44240;51.840;7.258;2023-12-20T05:45:04;8.38;;;3.15;;
58446;SDS011;44240;51.840;7.258;2023-12-20T05:47:32;11.27;;;3.72;;
58446;SDS011;44240;51.840;7.258;2023-12-20T05:49:58;10.52;;;3.10;;
58446;SDS011;44240;51.840;7.258;2023-12-20T05:52:25;11.95;;;3.92;;
58446;SDS011;44240;51.840;7.258;2023-12-20T05:54:52;8.35;;;3.72;;
58446;SDS011;44240;51.840;7.258;2023-12-20T05:57:19;9.45;;;3.20;;
58446;SDS011;44240;51.840;7.258;2023-12-20T05:59:46;13.75;;;3.88;;
58446;SDS011;44240;51.840;7.258;2023-12-20T06:02:12;10.13;;;3.30;;
58446;SDS011;44240;51.840;7.258;2023-12-20T06:04:42;9.73;;;3.08;;
58446;SDS011;44240;51.840;7.258;2023-12-20T06:07:12;7.20;;;3.53;;
58446;SDS011;44240;51.840;7.258;2023-12-20T06:09:40;9.45;;;3.33;;
58446;SDS011;44240;51.840;7.258;2023-12-20T06:12:07;9.90;;;3.78;;
58446;SDS011;44240;51.840;7.258;2023-12-20T06:14:37;9.85;;;3.22;;
58446;SDS011;44240;51.840;7.258;2023-12-20T06:17:04;13.35;;;3.67;;
58446;SDS011;44240;51.840;7.258;2023-12-20T06:19:30;11.57;;;4.00;;
58446;SDS011;44240;51.840;7.258;2023-12-20T06:21:57;13.98;;;4.15;;
58446;SDS011;44240;51.840;7.258;2023-12-20T06:24:24;12.52;;;3.63;;
58446;SDS011;44240;51.840;7.258;2023-12-20T06:26:54;9.68;;;4.78;;
58446;SDS011;44240;51.840;7.258;2023-12-20T06:29:21;10.30;;;3.72;;
58446;SDS011;44240;51.840;7.258;2023-12-20T06:31:48;15.60;;;4.00;;
58446;SDS011;44240;51.840;7.258;2023-12-20T06:34:15;9.65;;;3.90;;
58446;SDS011;44240;51.840;7.258;2023-12-20T06:36:42;13.65;;;4.00;;
58446;SDS011;44240;51.840;7.258;2023-12-20T06:39:09;9.60;;;4.10;;
58446;SDS011;44240;51.840;7.258;2023-12-20T06:41:38;10.45;;;3.47;;
58446;SDS011;44240;51.840;7.258;2023-12-20T06:44:05;10.75;;;3.92;;
58446;SDS011;44240;51.840;7.258;2023-12-20T06:46:32;12.45;;;3.92;;
58446;SDS011;44240;51.840;7.258;2023-12-20T06:48:59;12.38;;;4.28;;
58446;SDS011;44240;51.840;7.258;2023-12-20T06:51:25;10.00;;;4.20;;
58446;SDS011;44240;51.840;7.258;2023-12-20T06:53:52;9.80;;;3.72;;
58446;SDS011;44240;51.840;7.258;2023-12-20T06:56:19;10.93;;;3.30;;
58446;SDS011;44240;51.840;7.258;2023-12-20T06:58:46;4.95;;;3.10;;
58446;SDS011;44240;51.840;7.258;2023-12-20T07:01:14;14.98;;;4.43;;
58446;SDS011;44240;51.840;7.258;2023-12-20T07:03:42;15.70;;;4.10;;
58446;SDS011;44240;51.840;7.258;2023-12-20T07:06:08;10.82;;;3.90;;
58446;SDS011;44240;51.840;7.258;2023-12-20T07:08:35;14.00;;;3.47;;
58446;SDS011;44240;51.840;7.258;2023-12-20T07:11:02;15.27;;;4.28;;
58446;SDS011;44240;51.840;7.258;2023-12-20T07:13:29;10.43;;;3.50;;
58446;SDS011;44240;51.840;7.258;2023-12-20T07:15:56;11.75;;;4.13;;
58446;SDS011;44240;51.840;7.258;2023-12-20T07:18:23;13.80;;;3.95;;
58446;SDS011;44240;51.840;7.258;2023-12-20T07:20:50;10.93;;;3.75;;
58446;SDS011;44240;51.840;7.258;2023-12-20T07:23:17;15.48;;;4.50;;
58446;SDS011;44240;51.840;7.258;2023-12-20T07:25:45;11.02;;;3.40;;
58446;SDS011;44240;51.840;7.258;2023-12-20T07:28:12;12.43;;;3.63;;
58446;SDS011;44240;51.840;7.258;2023-12-20T07:30:39;13.63;;;4.30;;
58446;SDS011;44240;51.840;7.258;2023-12-20T07:33:06;12.45;;;4.13;;
58446;SDS011;44240;51.840;7.258;2023-12-20T07:35:35;9.77;;;3.10;;
58446;SDS011;44240;51.840;7.258;2023-12-20T07:38:02;9.80;;;4.53;;
58446;SDS011;44240;51.840;7.258;2023-12-20T07:40:29;13.63;;;4.20;;
58446;SDS011;44240;51.840;7.258;2023-12-20T07:42:55;12.88;;;4.07;;
58446;SDS011;44240;51.840;7.258;2023-12-20T07:45:22;15.10;;;4.28;;
58446;SDS011;44240;51.840;7.258;2023-12-20T07:47:49;10.95;;;3.42;;
58446;SDS011;44240;51.840;7.258;2023-12-20T07:50:16;11.13;;;4.03;;
58446;SDS011;44240;51.840;7.258;2023-12-20T07:52:43;7.82;;;3.75;;
58446;SDS011;44240;51.840;7.258;2023-12-20T07:55:10;10.50;;;3.38;;
58446;SDS011;44240;51.840;7.258;2023-12-20T07:57:37;14.75;;;4.18;;
58446;SDS011;44240;51.840;7.258;2023-12-20T08:00:04;11.50;;;4.35;;
58446;SDS011;44240;51.840;7.258;2023-12-20T08:02:31;7.43;;;3.42;;
58446;SDS011;44240;51.840;7.258;2023-12-20T08:04:58;12.63;;;3.28;;
58446;SDS011;44240;51.840;7.258;2023-12-20T08:07:25;15.05;;;3.85;;
58446;SDS011;44240;51.840;7.258;2023-12-20T08:09:51;14.10;;;4.78;;
58446;SDS011;44240;51.840;7.258;2023-12-20T08:12:19;7.07;;;2.80;;
58446;SDS011;44240;51.840;7.258;2023-12-20T08:14:46;8.13;;;3.60;;
58446;SDS011;44240;51.840;7.258;2023-12-20T08:17:12;15.38;;;4.88;;
58446;SDS011;44240;51.840;7.258;2023-12-20T08:19:42;12.70;;;4.13;;
58446;SDS011;44240;51.840;7.258;2023-12-20T08:22:09;10.85;;;4.40;;
58446;SDS011;44240;51.840;7.258;2023-12-20T08:24:36;9.25;;;3.70;;
58446;SDS011;44240;51.840;7.258;2023-12-20T08:27:02;8.15;;;3.05;;
58446;SDS011;44240;51.840;7.258;2023-12-20T08:29:30;11.88;;;3.65;;
58446;SDS011;44240;51.840;7.258;2023-12-20T08:31:57;7.32;;;2.72;;
58446;SDS011;44240;51.840;7.258;2023-12-20T08:34:23;14.15;;;3.90;;
58446;SDS011;44240;51.840;7.258;2023-12-20T08:36:51;11.88;;;3.58;;
58446;SDS011;44240;51.840;7.258;2023-12-20T08:39:18;8.80;;;3.13;;
58446;SDS011;44240;51.840;7.258;2023-12-20T08:41:44;8.10;;;3.20;;
58446;SDS011;44240;51.840;7.258;2023-12-20T08:44:11;9.90;;;3.40;;
58446;SDS011;44240;51.840;7.258;2023-12-20T08:46:38;11.15;;;3.70;;
58446;SDS011;44240;51.840;7.258;2023-12-20T08:49:05;12.82;;;3.30;;
58446;SDS011;44240;51.840;7.258;2023-12-20T08:51:32;13.73;;;3.50;;
58446;SDS011;44240;51.840;7.258;2023-12-20T08:53:59;7.88;;;3.50;;
58446;SDS011;44240;51.840;7.258;2023-12-20T08:56:26;10.60;;;2.95;;
58446;SDS011;44240;51.840;7.258;2023-12-20T08:58:53;9.43;;;3.40;;
58446;SDS011;44240;51.840;7.258;2023-12-20T09:01:20;10.70;;;3.25;;
58446;SDS011;44240;51.840;7.258;2023-12-20T09:03:47;13.52;;;3.75;;
58446;SDS011;44240;51.840;7.258;2023-12-20T09:06:14;13.77;;;4.03;;
58446;SDS011;44240;51.840;7.258;2023-12-20T09:08:41;5.07;;;2.03;;
58446;SDS011;44240;51.840;7.258;2023-12-20T09:11:07;12.40;;;3.10;;
58446;SDS011;44240;51.840;7.258;2023-12-20T09:13:34;9.18;;;3.25;;
58446;SDS011;44240;51.840;7.258;2023-12-20T09:16:02;9.68;;;3.15;;
58446;SDS011;44240;51.840;7.258;2023-12-20T09:18:29;13.85;;;3.83;;
58446;SDS011;44240;51.840;7.258;2023-12-20T09:20:56;10.05;;;3.90;;
58446;SDS011;44240;51.840;7.258;2023-12-20T09:23:23;13.07;;;3.30;;
58446;SDS011;44240;51.840;7.258;2023-12-20T09:25:50;4.18;;;2.30;;
58446;SDS011;44240;51.840;7.258;2023-12-20T09:28:20;9.60;;;3.17;;
58446;SDS011;44240;51.840;7.258;2023-12-20T09:30:47;13.65;;;3.92;;
58446;SDS011;44240;51.840;7.258;2023-12-20T09:33:14;8.63;;;2.25;;
58446;SDS011;44240;51.840;7.258;2023-12-20T09:35:41;16.42;;;4.38;;
58446;SDS011;44240;51.840;7.258;2023-12-20T09:38:08;12.60;;;3.03;;
58446;SDS011;44240;51.840;7.258;2023-12-20T09:40:35;12.85;;;2.58;;
58446;SDS011;44240;51.840;7.258;2023-12-20T09:43:05;8.02;;;3.60;;
58446;SDS011;44240;51.840;7.258;2023-12-20T09:45:37;14.13;;;2.92;;
58446;SDS011;44240;51.840;7.258;2023-12-20T09:48:06;11.55;;;3.03;;
58446;SDS011;44240;51.840;7.258;2023-12-20T09:50:37;8.35;;;2.75;;
58446;SDS011;44240;51.840;7.258;2023-12-20T09:53:03;9.20;;;2.55;;
58446;SDS011;44240;51.840;7.258;2023-12-20T09:55:35;10.73;;;2.83;;
58446;SDS011;44240;51.840;7.258;2023-12-20T09:58:03;12.23;;;3.38;;
58446;SDS011;44240;51.840;7.258;2023-12-20T10:00:30;10.13;;;2.83;;
58446;SDS011;44240;51.840;7.258;2023-12-20T10:02:58;4.85;;;2.00;;
58446;SDS011;44240;51.840;7.258;2023-12-20T10:05:30;6.90;;;2.95;;
58446;SDS011;44240;51.840;7.258;2023-12-20T10:07:59;8.85;;;2.55;;
58446;SDS011;44240;51.840;7.258;2023-12-20T10:10:28;10.18;;;3.67;;
58446;SDS011;44240;51.840;7.258;2023-12-20T10:13:10;10.32;;;2.58;;
58446;SDS011;44240;51.840;7.258;2023-12-20T10:15:38;7.10;;;1.95;;
58446;SDS011;44240;51.840;7.258;2023-12-20T10:18:05;9.90;;;3.38;;
58446;SDS011;44240;51.840;7.258;2023-12-20T10:20:33;10.25;;;2.83;;
58446;SDS011;44240;51.840;7.258;2023-12-20T10:23:00;11.68;;;2.72;;
58446;SDS011;44240;51.840;7.258;2023-12-20T10:25:27;7.82;;;2.58;;
58446;SDS011;44240;51.840;7.258;2023-12-20T10:30:54;6.85;;;3.03;;
58446;SDS011;44240;51.840;7.258;2023-12-20T10:33:24;9.70;;;2.38;;
58446;SDS011;44240;51.840;7.258;2023-12-20T10:35:55;12.70;;;2.50;;
58446;SDS011;44240;51.840;7.258;2023-12-20T10:38:22;8.05;;;2.67;;
58446;SDS011;44240;51.840;7.258;2023-12-20T10:40:50;11.27;;;2.70;;
58446;SDS011;44240;51.840;7.258;2023-12-20T10:43:24;11.20;;;3.28;;
58446;SDS011;44240;51.840;7.258;2023-12-20T10:45:53;9.13;;;3.03;;
58446;SDS011;44240;51.840;7.258;2023-12-20T10:48:19;13.50;;;3.30;;
58446;SDS011;44240;51.840;7.258;2023-12-20T10:50:48;10.48;;;2.55;;
58446;SDS011;44240;51.840;7.258;2023-12-20T10:53:15;10.25;;;2.25;;
58446;SDS011;44240;51.840;7.258;2023-12-20T10:55:42;8.85;;;2.53;;
58446;SDS011;44240;51.840;7.258;2023-12-20T10:58:10;13.70;;;3.15;;
58446;SDS011;44240;51.840;7.258;2023-12-20T11:00:40;8.68;;;2.60;;
58446;SDS011;44240;51.840;7.258;2023-12-20T11:03:08;12.30;;;2.95;;
58446;SDS011;44240;51.840;7.258;2023-12-20T11:05:53;12.85;;;4.00;;
58446;SDS011;44240;51.840;7.258;2023-12-20T11:15:46;12.00;;;3.75;;
58446;SDS011;44240;51.840;7.258;2023-12-20T11:18:13;8.13;;;2.58;;
58446;SDS011;44240;51.840;7.258;2023-12-20T11:20:42;5.82;;;2.55;;
58446;SDS011;44240;51.840;7.258;2023-12-20T11:23:09;11.18;;;3.10;;
58446;SDS011;44240;51.840;7.258;2023-12-20T11:25:49;6.38;;;2.38;;
58446;SDS011;44240;51.840;7.258;2023-12-20T11:28:23;11.23;;;2.88;;
58446;SDS011;44240;51.840;7.258;2023-12-20T11:33:23;12.50;;;2.88;;
58446;SDS011;44240;51.840;7.258;2023-12-20T11:35:55;11.10;;;3.20;;
58446;SDS011;44240;51.840;7.258;2023-12-20T11:38:23;7.55;;;2.58;;
58446;SDS011;44240;51.840;7.258;2023-12-20T11:40:51;8.85;;;2.83;;
58446;SDS011;44240;51.840;7.258;2023-12-20T11:43:30;11.35;;;2.40;;
58446;SDS011;44240;51.840;7.258;2023-12-20T11:46:02;9.23;;;2.75;;
58446;SDS011;44240;51.840;7.258;2023-12-20T11:48:38;13.80;;;3.00;;
58446;SDS011;44240;51.840;7.258;2023-12-20T11:53:37;11.55;;;3.22;;
58446;SDS011;44240;51.840;7.258;2023-12-20T11:56:05;7.70;;;2.28;;
58446;SDS011;44240;51.840;7.258;2023-12-20T11:58:35;6.10;;;2.38;;
58446;SDS011;44240;51.840;7.258;2023-12-20T12:01:03;5.85;;;2.55;;
58446;SDS011;44240;51.840;7.258;2023-12-20T12:03:31;9.60;;;3.30;;
58446;SDS011;44240;51.840;7.258;2023-12-20T12:05:59;12.63;;;3.45;;
58446;SDS011;44240;51.840;7.258;2023-12-20T12:08:27;11.60;;;2.55;;
58446;SDS011;44240;51.840;7.258;2023-12-20T12:10:53;7.28;;;3.00;;
58446;SDS011;44240;51.840;7.258;2023-12-20T12:13:20;9.60;;;3.22;;
58446;SDS011;44240;51.840;7.258;2023-12-20T12:15:48;11.73;;;3.08;;
58446;SDS011;44240;51.840;7.258;2023-12-20T12:18:16;7.78;;;2.72;;
58446;SDS011;44240;51.840;7.258;2023-12-20T12:20:43;5.93;;;2.95;;
58446;SDS011;44240;51.840;7.258;2023-12-20T12:23:10;8.95;;;3.33;;
58446;SDS011;44240;51.840;7.258;2023-12-20T12:25:37;7.43;;;2.63;;
58446;SDS011;44240;51.840;7.258;2023-12-20T12:28:08;8.27;;;2.80;;
58446;SDS011;44240;51.840;7.258;2023-12-20T12:30:36;9.27;;;2.80;;
58446;SDS011;44240;51.840;7.258;2023-12-20T12:33:11;11.32;;;3.55;;
58446;SDS011;44240;51.840;7.258;2023-12-20T12:35:39;9.35;;;3.30;;
58446;SDS011;44240;51.840;7.258;2023-12-20T12:38:06;11.40;;;3.28;;
58446;SDS011;44240;51.840;7.258;2023-12-20T12:40:34;12.70;;;3.55;;
58446;SDS011;44240;51.840;7.258;2023-12-20T12:43:02;10.73;;;2.92;;
58446;SDS011;44240;51.840;7.258;2023-12-20T12:45:30;10.40;;;3.47;;
58446;SDS011;44240;51.840;7.258;2023-12-20T12:47:57;10.13;;;3.83;;
58446;SDS011;44240;51.840;7.258;2023-12-20T12:50:24;13.02;;;3.38;;
58446;SDS011;44240;51.840;7.258;2023-12-20T12:52:51;9.50;;;3.28;;
58446;SDS011;44240;51.840;7.258;2023-12-20T12:55:18;9.93;;;3.50;;
58446;SDS011;44240;51.840;7.258;2023-12-20T12:57:45;8.63;;;2.85;;
58446;SDS011;44240;51.840;7.258;2023-12-20T13:00:12;12.55;;;3.50;;
58446;SDS011;44240;51.840;7.258;2023-12-20T13:02:39;13.10;;;3.30;;
58446;SDS011;44240;51.840;7.258;2023-12-20T13:05:09;9.77;;;3.05;;
58446;SDS011;44240;51.840;7.258;2023-12-20T13:07:36;11.07;;;3.25;;
58446;SDS011;44240;51.840;7.258;2023-12-20T13:10:04;12.48;;;2.97;;
58446;SDS011;44240;51.840;7.258;2023-12-20T13:12:32;14.10;;;3.58;;
58446;SDS011;44240;51.840;7.258;2023-12-20T13:14:58;8.70;;;2.33;;
58446;SDS011;44240;51.840;7.258;2023-12-20T13:17:25;10.23;;;3.60;;
58446;SDS011;44240;51.840;7.258;2023-12-20T13:19:55;13.05;;;3.28;;
58446;SDS011;44240;51.840;7.258;2023-12-20T13:22:22;9.95;;;3.10;;
58446;SDS011;44240;51.840;7.258;2023-12-20T13:24:49;7.65;;;3.10;;
58446;SDS011;44240;51.840;7.258;2023-12-20T13:27:16;7.07;;;2.45;;
58446;SDS011;44240;51.840;7.258;2023-12-20T13:29:43;8.95;;;3.15;;
58446;SDS011;44240;51.840;7.258;2023-12-20T13:32:10;9.13;;;2.58;;
58446;SDS011;44240;51.840;7.258;2023-12-20T13:34:37;9.73;;;2.95;;
58446;SDS011;44240;51.840;7.258;2023-12-20T13:37:04;9.52;;;2.45;;
58446;SDS011;44240;51.840;7.258;2023-12-20T13:39:31;8.63;;;2.70;;
58446;SDS011;44240;51.840;7.258;2023-12-20T13:41:58;13.18;;;2.70;;
58446;SDS011;44240;51.840;7.258;2023-12-20T13:44:27;11.85;;;3.05;;
58446;SDS011;44240;51.840;7.258;2023-12-20T13:46:53;7.43;;;2.17;;
58446;SDS011;44240;51.840;7.258;2023-12-20T13:49:20;8.25;;;2.55;;
58446;SDS011;44240;51.840;7.258;2023-12-20T13:51:51;8.90;;;2.42;;
58446;SDS011;44240;51.840;7.258;2023-12-20T13:54:21;13.45;;;2.60;;
58446;SDS011;44240;51.840;7.258;2023-12-20T13:56:48;7.15;;;2.97;;
58446;SDS011;44240;51.840;7.258;2023-12-20T13:59:32;10.50;;;2.95;;
58446;SDS011;44240;51.840;7.258;2023-12-20T14:01:59;12.13;;;3.92;;
58446;SDS011;44240;51.840;7.258;2023-12-20T14:04:27;9.43;;;2.50;;
58446;SDS011;44240;51.840;7.258;2023-12-20T14:07:08;7.07;;;2.63;;
58446;SDS011;44240;51.840;7.258;2023-12-20T14:09:37;7.85;;;2.80;;
58446;SDS011;44240;51.840;7.258;2023-12-20T14:12:04;6.85;;;2.65;;
58446;SDS011;44240;51.840;7.258;2023-12-20T14:14:31;10.00;;;2.63;;
58446;SDS011;44240;51.840;7.258;2023-12-20T14:16:58;12.02;;;3.50;;
58446;SDS011;44240;51.840;7.258;2023-12-20T14:19:24;9.80;;;2.33;;
58446;SDS011;44240;51.840;7.258;2023-12-20T14:21:51;6.70;;;2.88;;
58446;SDS011;44240;51.840;7.258;2023-12-20T14:24:18;10.88;;;3.28;;
58446;SDS011;44240;51.840;7.258;2023-12-20T14:26:45;11.18;;;3.42;;
58446;SDS011;44240;51.840;7.258;2023-12-20T14:29:12;6.70;;;3.80;;
58446;SDS011;44240;51.840;7.258;2023-12-20T14:31:38;5.78;;;3.72;;
58446;SDS011;44240;51.840;7.258;2023-12-20T14:34:07;10.93;;;2.72;;
58446;SDS011;44240;51.840;7.258;2023-12-20T14:36:34;6.93;;;3.30;;
58446;SDS011;44240;51.840;7.258;2023-12-20T14:39:01;10.32;;;4.15;;
58446;SDS011;44240;51.840;7.258;2023-12-20T14:41:29;7.88;;;4.00;;
58446;SDS011;44240;51.840;7.258;2023-12-20T14:43:58;8.55;;;3.47;;
58446;SDS011;44240;51.840;7.258;2023-12-20T14:46:26;7.85;;;3.42;;
58446;SDS011;44240;51.840;7.258;2023-12-20T14:48:54;8.52;;;3.33;;
58446;SDS011;44240;51.840;7.258;2023-12-20T14:51:21;9.48;;;4.47;;
58446;SDS011;44240;51.840;7.258;2023-12-20T14:53:48;10.82;;;3.50;;
58446;SDS011;44240;51.840;7.258;2023-12-20T14:56:15;8.43;;;3.38;;
58446;SDS011;44240;51.840;7.258;2023-12-20T14:58:42;10.55;;;4.00;;